Time;durP1;ratioP1;P1;durP2;ratioP2;P2;SDS_P1;SDS_P2;PMS_P1;PMS_P2;Temp;Humidity;BMP_temperature;BMP_pressure;BME280_temperature;BME280_humidity;BME280_pressure;Samples;Min_cycle;Max_cycle;Signal;HPM_P1;HPM_P2
2022/06/18 00:01:50;;;;;;;20.95;5.38;;;;;;;;;;4937914;29;20023;-75
2022/06/18 00:04:17;;;;;;;16.77;4.60;;;;;;;;;;4934681;29;20028;-75
2022/06/18 00:06:50;;;;;;;16.05;3.92;;;;;;;;;;4936943;29;20031;-74
2022/06/18 00:09:20;;;;;;;13.50;4.05;;;;;;;;;;4938072;29;20040;-75
2022/06/18 00:14:33;;;;;;;15.23;3.70;;;;;;;;;;4951866;28;20049;-74
2022/06/18 00:16:59;;;;;;;12.63;4.15;;;;;;;;;;4954589;28;20034;-75
2022/06/18 00:19:26;;;;;;;13.57;4.22;;;;;;;;;;4972558;28;20037;-75
2022/06/18 00:21:52;;;;;;;14.20;3.60;;;;;;;;;;4972017;28;20033;-75
2022/06/18 00:24:20;;;;;;;15.18;3.75;;;;;;;;;;4972511;28;20042;-75
2022/06/18 00:26:47;;;;;;;17.38;4.05;;;;;;;;;;4971907;28;20029;-75
2022/06/18 00:29:15;;;;;;;14.73;3.55;;;;;;;;;;4971508;28;20035;-74
2022/06/18 00:31:42;;;;;;;15.90;3.22;;;;;;;;;;4971893;28;20014;-75
2022/06/18 00:34:08;;;;;;;15.80;3.30;;;;;;;;;;4971922;28;20026;-75
2022/06/18 00:36:37;;;;;;;13.68;3.75;;;;;;;;;;4968280;28;20414;-75
2022/06/18 00:39:04;;;;;;;14.95;3.70;;;;;;;;;;4971994;28;20037;-75
2022/06/18 00:41:32;;;;;;;13.52;3.30;;;;;;;;;;4971899;28;20033;-75
2022/06/18 00:43:58;;;;;;;17.13;3.50;;;;;;;;;;4971730;28;20022;-74
2022/06/18 00:46:50;;;;;;;13.38;3.47;;;;;;;;;;4971918;28;20019;-75
2022/06/18 00:49:16;;;;;;;12.05;3.33;;;;;;;;;;4957525;28;20027;-74
2022/06/18 00:51:46;;;;;;;16.50;3.13;;;;;;;;;;4972339;28;20037;-75
2022/06/18 00:54:23;;;;;;;17.80;3.25;;;;;;;;;;4971274;28;20030;-74
2022/06/18 00:56:52;;;;;;;10.63;3.40;;;;;;;;;;4972952;28;20035;-74
2022/06/18 00:59:22;;;;;;;12.55;3.25;;;;;;;;;;4974816;28;20033;-74
2022/06/18 01:01:49;;;;;;;15.32;3.60;;;;;;;;;;4975380;28;20023;-74
2022/06/18 01:04:21;;;;;;;17.55;3.83;;;;;;;;;;4975117;28;20149;-75
2022/06/18 01:06:48;;;;;;;17.60;3.72;;;;;;;;;;4975021;28;20022;-75
2022/06/18 01:09:16;;;;;;;16.27;3.60;;;;;;;;;;4975347;28;20029;-75
2022/06/18 01:11:43;;;;;;;15.13;4.10;;;;;;;;;;4974932;28;20031;-75
2022/06/18 01:14:11;;;;;;;12.55;3.58;;;;;;;;;;4974257;28;20058;-74
2022/06/18 01:16:38;;;;;;;11.90;3.30;;;;;;;;;;4974757;28;20036;-75
2022/06/18 01:19:05;;;;;;;19.70;3.97;;;;;;;;;;4974838;28;20444;-74
2022/06/18 01:21:50;;;;;;;16.13;3.85;;;;;;;;;;4975416;28;20027;-75
2022/06/18 01:24:17;;;;;;;11.73;3.70;;;;;;;;;;4973663;28;20093;-75
2022/06/18 01:26:48;;;;;;;14.65;3.55;;;;;;;;;;4973350;28;20491;-75
2022/06/18 01:29:14;;;;;;;10.18;3.22;;;;;;;;;;4974221;28;20031;-75
2022/06/18 01:31:41;;;;;;;16.70;3.35;;;;;;;;;;4974876;28;20015;-75
2022/06/18 01:34:09;;;;;;;14.05;3.75;;;;;;;;;;4974901;28;20089;-75
2022/06/18 01:36:36;;;;;;;15.32;3.10;;;;;;;;;;4974981;28;20038;-75
2022/06/18 01:39:07;;;;;;;12.45;3.17;;;;;;;;;;4974350;28;20030;-74
2022/06/18 01:41:51;;;;;;;12.88;3.45;;;;;;;;;;4973990;28;20081;-74
2022/06/18 01:44:40;;;;;;;11.20;3.40;;;;;;;;;;4974187;28;20487;-75
2022/06/18 01:47:35;;;;;;;13.02;3.45;;;;;;;;;;4974313;28;20054;-74
2022/06/18 01:50:10;;;;;;;14.40;3.40;;;;;;;;;;4957597;28;20430;-75
2022/06/18 01:52:38;;;;;;;13.68;3.45;;;;;;;;;;4974318;28;20025;-75
2022/06/18 01:55:13;;;;;;;15.45;3.47;;;;;;;;;;4974458;28;20037;-74
2022/06/18 01:57:42;;;;;;;12.60;3.28;;;;;;;;;;4953173;28;20495;-75
2022/06/18 02:00:12;;;;;;;10.27;3.22;;;;;;;;;;4974421;28;20041;-75
2022/06/18 02:02:39;;;;;;;9.57;3.22;;;;;;;;;;4974081;28;20023;-75
2022/06/18 02:05:06;;;;;;;14.88;2.70;;;;;;;;;;4974057;28;20439;-75
2022/06/18 02:07:33;;;;;;;9.90;3.15;;;;;;;;;;4973604;28;20025;-75
2022/06/18 02:10:06;;;;;;;14.50;3.47;;;;;;;;;;4974085;28;20039;-75
2022/06/18 02:12:34;;;;;;;9.23;2.97;;;;;;;;;;4974380;28;20064;-75
2022/06/18 02:15:06;;;;;;;12.73;3.10;;;;;;;;;;4973359;28;20057;-75
2022/06/18 02:17:32;;;;;;;16.70;3.58;;;;;;;;;;4973703;28;20034;-75
2022/06/18 02:20:05;;;;;;;9.10;3.20;;;;;;;;;;4973556;28;20026;-75
2022/06/18 02:22:51;;;;;;;10.02;3.38;;;;;;;;;;4973668;28;20407;-75
2022/06/18 02:25:19;;;;;;;12.43;3.47;;;;;;;;;;4958952;28;20368;-75
2022/06/18 02:27:46;;;;;;;13.60;3.20;;;;;;;;;;4973744;28;20018;-75
2022/06/18 02:30:24;;;;;;;10.18;3.30;;;;;;;;;;4973100;28;20038;-75
2022/06/18 02:33:02;;;;;;;9.02;2.97;;;;;;;;;;4973282;28;20026;-75
2022/06/18 02:35:30;;;;;;;12.50;3.35;;;;;;;;;;4973232;28;20046;-75
2022/06/18 02:37:56;;;;;;;16.27;3.50;;;;;;;;;;4973344;28;20019;-75
2022/06/18 02:40:25;;;;;;;13.25;3.53;;;;;;;;;;4972978;28;20030;-75
2022/06/18 02:42:53;;;;;;;14.32;3.10;;;;;;;;;;4973410;28;20460;-75
2022/06/18 02:45:21;;;;;;;10.15;3.17;;;;;;;;;;4971689;28;20037;-75
2022/06/18 02:47:48;;;;;;;8.52;3.30;;;;;;;;;;4971820;28;20373;-74
2022/06/18 02:50:15;;;;;;;11.77;3.15;;;;;;;;;;4973019;28;20407;-75
2022/06/18 02:52:45;;;;;;;13.52;3.35;;;;;;;;;;4973042;28;20033;-75
2022/06/18 02:55:24;;;;;;;12.48;3.60;;;;;;;;;;4957839;28;20037;-75
2022/06/18 02:57:53;;;;;;;18.25;2.90;;;;;;;;;;4971658;28;20031;-75
2022/06/18 03:00:19;;;;;;;9.40;2.83;;;;;;;;;;4971419;28;20045;-74
2022/06/18 03:02:46;;;;;;;12.57;3.33;;;;;;;;;;4972704;28;20049;-75
2022/06/18 03:05:18;;;;;;;12.27;3.45;;;;;;;;;;4972994;28;20201;-75
2022/06/18 03:07:44;;;;;;;12.32;3.33;;;;;;;;;;4972804;28;20045;-75
2022/06/18 03:12:55;;;;;;;12.05;2.80;;;;;;;;;;4971499;28;20034;-74
2022/06/18 03:15:21;;;;;;;12.18;3.42;;;;;;;;;;4973023;28;20053;-74
2022/06/18 03:17:48;;;;;;;11.27;3.13;;;;;;;;;;4972501;28;20041;-75
2022/06/18 03:20:16;;;;;;;12.38;3.20;;;;;;;;;;4972246;28;20395;-75
2022/06/18 03:22:42;;;;;;;7.63;3.20;;;;;;;;;;4972640;28;20364;-74
2022/06/18 03:25:09;;;;;;;8.20;3.08;;;;;;;;;;4972438;28;20510;-75
2022/06/18 03:27:35;;;;;;;11.73;2.85;;;;;;;;;;4971760;28;20037;-74
2022/06/18 03:30:04;;;;;;;12.05;3.20;;;;;;;;;;4972788;28;20056;-75
2022/06/18 03:32:32;;;;;;;11.13;2.80;;;;;;;;;;4972543;28;20052;-75
2022/06/18 03:34:58;;;;;;;12.23;2.92;;;;;;;;;;4972363;28;20026;-75
2022/06/18 03:37:24;;;;;;;13.38;3.47;;;;;;;;;;4955036;28;20043;-74
2022/06/18 03:39:50;;;;;;;9.32;2.97;;;;;;;;;;4972167;28;20046;-75
2022/06/18 03:42:17;;;;;;;10.90;3.08;;;;;;;;;;4955585;28;20081;-75
2022/06/18 03:44:43;;;;;;;9.82;3.25;;;;;;;;;;4972229;28;20093;-75
2022/06/18 03:47:09;;;;;;;12.65;2.97;;;;;;;;;;4972229;28;20039;-75
2022/06/18 03:49:36;;;;;;;17.38;3.08;;;;;;;;;;4972373;28;20026;-75
2022/06/18 03:52:05;;;;;;;9.60;3.28;;;;;;;;;;4972067;28;20446;-75
2022/06/18 03:54:31;;;;;;;15.43;3.50;;;;;;;;;;4972924;28;20023;-75
2022/06/18 03:56:57;;;;;;;15.10;3.03;;;;;;;;;;4972054;28;20050;-75
2022/06/18 03:59:24;;;;;;;10.32;3.00;;;;;;;;;;4971996;28;20373;-75
2022/06/18 04:01:51;;;;;;;11.98;3.10;;;;;;;;;;4972245;28;20510;-75
2022/06/18 04:04:17;;;;;;;19.73;2.80;;;;;;;;;;4972172;28;20399;-75
2022/06/18 04:06:44;;;;;;;12.82;3.33;;;;;;;;;;4972006;28;20031;-75
2022/06/18 04:09:10;;;;;;;14.32;3.00;;;;;;;;;;4972501;28;20026;-75
2022/06/18 04:11:37;;;;;;;10.98;2.90;;;;;;;;;;4954871;28;20026;-74
2022/06/18 04:14:04;;;;;;;10.55;3.13;;;;;;;;;;4972109;28;20042;-74
2022/06/18 04:16:31;;;;;;;19.75;3.40;;;;;;;;;;4972067;28;20499;-75
2022/06/18 04:18:57;;;;;;;13.80;3.10;;;;;;;;;;4971958;28;20081;-74
2022/06/18 04:21:23;;;;;;;13.20;3.22;;;;;;;;;;4972262;28;20041;-75
2022/06/18 04:23:50;;;;;;;11.10;2.80;;;;;;;;;;4972072;28;20026;-75
2022/06/18 04:26:16;;;;;;;14.25;3.00;;;;;;;;;;4971924;28;20035;-75
2022/06/18 04:28:42;;;;;;;11.40;3.20;;;;;;;;;;4971727;28;20053;-75
2022/06/18 04:31:08;;;;;;;17.48;3.20;;;;;;;;;;4957044;28;20031;-75
2022/06/18 04:33:35;;;;;;;9.15;2.53;;;;;;;;;;4976302;28;20033;-75
2022/06/18 04:36:01;;;;;;;10.00;3.10;;;;;;;;;;4975158;28;20500;-75
2022/06/18 04:38:27;;;;;;;16.00;2.90;;;;;;;;;;4975613;28;20022;-75
2022/06/18 04:40:54;;;;;;;15.30;3.13;;;;;;;;;;4975302;28;20023;-75
2022/06/18 04:43:21;;;;;;;16.70;3.58;;;;;;;;;;4975645;28;20023;-75
2022/06/18 04:45:47;;;;;;;13.18;3.05;;;;;;;;;;4975516;28;20081;-75
2022/06/18 04:48:14;;;;;;;10.13;3.17;;;;;;;;;;4975637;28;20035;-75
2022/06/18 04:50:40;;;;;;;5.53;2.33;;;;;;;;;;4975358;28;20031;-75
2022/06/18 04:53:07;;;;;;;9.23;3.00;;;;;;;;;;4975452;28;20057;-74
2022/06/18 04:55:34;;;;;;;9.27;3.28;;;;;;;;;;4975121;28;20030;-75
2022/06/18 04:58:01;;;;;;;10.35;3.22;;;;;;;;;;4975207;28;20149;-74
2022/06/18 05:00:27;;;;;;;11.55;3.00;;;;;;;;;;4975733;28;20034;-74
2022/06/18 05:02:53;;;;;;;12.20;2.42;;;;;;;;;;4975026;28;20027;-75
2022/06/18 05:05:22;;;;;;;11.88;2.90;;;;;;;;;;4974636;28;20037;-75
2022/06/18 05:07:48;;;;;;;15.02;3.20;;;;;;;;;;4974979;28;20022;-75
2022/06/18 05:10:15;;;;;;;5.82;2.70;;;;;;;;;;4975004;28;20049;-74
2022/06/18 05:12:41;;;;;;;10.05;2.80;;;;;;;;;;4975118;28;20537;-75
2022/06/18 05:15:09;;;;;;;11.10;2.88;;;;;;;;;;4974600;28;20058;-75
2022/06/18 05:17:36;;;;;;;12.27;2.78;;;;;;;;;;4974642;28;20503;-74
2022/06/18 05:20:04;;;;;;;10.48;2.70;;;;;;;;;;4974279;28;20026;-75
2022/06/18 05:22:30;;;;;;;6.78;3.00;;;;;;;;;;4973445;28;20510;-75
2022/06/18 05:24:56;;;;;;;5.13;2.80;;;;;;;;;;4974881;28;20030;-75
2022/06/18 05:27:23;;;;;;;6.82;2.70;;;;;;;;;;4975158;28;20037;-75
2022/06/18 05:29:49;;;;;;;6.10;2.40;;;;;;;;;;4974700;28;20443;-75
2022/06/18 05:32:15;;;;;;;9.88;2.88;;;;;;;;;;4974725;28;20042;-75
2022/06/18 05:34:42;;;;;;;10.07;2.95;;;;;;;;;;4974335;28;20484;-75
2022/06/18 05:37:15;;;;;;;10.38;2.80;;;;;;;;;;4974446;28;20093;-75
2022/06/18 05:39:42;;;;;;;10.65;2.97;;;;;;;;;;4971182;28;20021;-75
2022/06/18 05:42:08;;;;;;;16.63;3.03;;;;;;;;;;4974003;28;20373;-75
2022/06/18 05:44:35;;;;;;;9.07;3.47;;;;;;;;;;4974398;28;20023;-75
2022/06/18 05:47:02;;;;;;;11.55;3.30;;;;;;;;;;4974181;28;20037;-75
2022/06/18 05:49:29;;;;;;;8.48;2.53;;;;;;;;;;4973981;28;20019;-75
2022/06/18 05:51:55;;;;;;;8.60;2.97;;;;;;;;;;4974280;28;20041;-75
2022/06/18 05:54:22;;;;;;;11.05;2.88;;;;;;;;;;4974695;28;20033;-75
2022/06/18 05:56:48;;;;;;;14.85;3.60;;;;;;;;;;4973813;28;20034;-75
2022/06/18 05:59:14;;;;;;;8.43;2.88;;;;;;;;;;4973962;28;20026;-75
2022/06/18 06:01:41;;;;;;;13.75;3.05;;;;;;;;;;4974318;28;20081;-75
2022/06/18 06:04:07;;;;;;;9.63;2.85;;;;;;;;;;4973878;28;20034;-75
2022/06/18 06:06:33;;;;;;;7.25;2.63;;;;;;;;;;4974455;28;20030;-75
2022/06/18 06:08:59;;;;;;;9.70;3.42;;;;;;;;;;4974144;28;20059;-75
2022/06/18 06:11:29;;;;;;;8.27;3.17;;;;;;;;;;4973808;28;20037;-75
2022/06/18 06:13:56;;;;;;;10.95;3.42;;;;;;;;;;4973581;28;20045;-75
2022/06/18 06:16:22;;;;;;;17.88;3.25;;;;;;;;;;4956306;28;20328;-75
2022/06/18 06:18:49;;;;;;;12.07;3.33;;;;;;;;;;4973520;28;20026;-75
2022/06/18 06:21:15;;;;;;;10.10;3.53;;;;;;;;;;4974363;28;20042;-75
2022/06/18 06:23:42;;;;;;;15.35;3.70;;;;;;;;;;4973610;28;20023;-75
2022/06/18 06:26:19;;;;;;;13.57;3.70;;;;;;;;;;4973768;28;20033;-75
2022/06/18 06:28:46;;;;;;;13.77;3.53;;;;;;;;;;4973608;28;20037;-74
2022/06/18 06:31:12;;;;;;;5.97;2.95;;;;;;;;;;4973892;28;20027;-74
2022/06/18 06:33:39;;;;;;;14.73;3.08;;;;;;;;;;4973707;28;20525;-75
2022/06/18 06:36:06;;;;;;;9.13;3.15;;;;;;;;;;4973312;28;20035;-75
2022/06/18 06:38:32;;;;;;;13.40;3.05;;;;;;;;;;4973226;28;20073;-75
2022/06/18 06:40:59;;;;;;;5.95;2.90;;;;;;;;;;4973630;28;20030;-75
2022/06/18 06:43:25;;;;;;;13.65;3.50;;;;;;;;;;4973775;28;20019;-75
2022/06/18 06:45:52;;;;;;;7.45;3.22;;;;;;;;;;4973595;28;20023;-75
2022/06/18 06:48:18;;;;;;;10.75;3.25;;;;;;;;;;4973387;28;20026;-75
2022/06/18 06:50:47;;;;;;;14.25;3.50;;;;;;;;;;4973387;28;20037;-75
2022/06/18 06:53:13;;;;;;;9.35;3.00;;;;;;;;;;4972830;28;20504;-75
2022/06/18 06:58:25;;;;;;;10.93;3.33;;;;;;;;;;4973317;28;20023;-75
2022/06/18 07:00:56;;;;;;;6.95;3.15;;;;;;;;;;4971333;28;20041;-75
2022/06/18 07:03:25;;;;;;;10.68;3.60;;;;;;;;;;4972106;28;20029;-75
2022/06/18 07:05:52;;;;;;;9.27;3.10;;;;;;;;;;4973133;28;20519;-75
2022/06/18 07:08:18;;;;;;;13.65;3.00;;;;;;;;;;4972781;28;20035;-75
2022/06/18 07:10:48;;;;;;;8.40;3.38;;;;;;;;;;4972808;28;20069;-75
2022/06/18 07:13:14;;;;;;;12.85;3.90;;;;;;;;;;4972888;28;20025;-75
2022/06/18 07:15:41;;;;;;;11.43;3.83;;;;;;;;;;4972603;28;20038;-75
2022/06/18 07:18:12;;;;;;;10.80;3.30;;;;;;;;;;4971765;28;20041;-75
2022/06/18 07:20:39;;;;;;;8.82;3.22;;;;;;;;;;4972632;28;20023;-74
2022/06/18 07:23:05;;;;;;;8.52;3.00;;;;;;;;;;4972742;28;20023;-75
2022/06/18 07:25:32;;;;;;;8.10;3.15;;;;;;;;;;4971420;28;20033;-75
2022/06/18 07:27:58;;;;;;;6.38;3.25;;;;;;;;;;4972555;28;20491;-75
2022/06/18 07:30:24;;;;;;;9.55;3.28;;;;;;;;;;4972821;28;20506;-75
2022/06/18 07:32:51;;;;;;;9.85;3.10;;;;;;;;;;4972482;28;20022;-75
2022/06/18 07:35:19;;;;;;;10.75;3.33;;;;;;;;;;4972461;28;20037;-75
2022/06/18 07:37:45;;;;;;;12.70;3.90;;;;;;;;;;4972420;28;20029;-75
2022/06/18 07:40:12;;;;;;;10.73;3.45;;;;;;;;;;4972310;28;20037;-75
2022/06/18 07:42:38;;;;;;;9.88;3.40;;;;;;;;;;4973102;28;20526;-75
2022/06/18 07:45:06;;;;;;;10.90;3.47;;;;;;;;;;4972361;28;20037;-75
2022/06/18 07:47:32;;;;;;;14.52;3.83;;;;;;;;;;4972508;28;20031;-75
2022/06/18 07:49:58;;;;;;;11.77;3.80;;;;;;;;;;4972263;28;20030;-75
2022/06/18 07:52:25;;;;;;;13.82;3.22;;;;;;;;;;4972305;28;20022;-75
2022/06/18 07:54:51;;;;;;;10.90;3.75;;;;;;;;;;4972389;28;20031;-75
2022/06/18 07:57:17;;;;;;;19.65;4.00;;;;;;;;;;4972613;28;20043;-75
2022/06/18 07:59:44;;;;;;;11.43;3.63;;;;;;;;;;4971704;28;20023;-75
2022/06/18 08:02:11;;;;;;;13.18;3.88;;;;;;;;;;4972183;28;20476;-75
2022/06/18 08:04:37;;;;;;;15.43;3.58;;;;;;;;;;4972500;28;20027;-75
2022/06/18 08:07:04;;;;;;;10.05;3.63;;;;;;;;;;4975920;28;20053;-75
2022/06/18 08:09:30;;;;;;;14.57;3.58;;;;;;;;;;4976934;28;20031;-75
2022/06/18 08:11:56;;;;;;;13.43;4.03;;;;;;;;;;4974854;28;20047;-75
2022/06/18 08:14:23;;;;;;;18.02;3.90;;;;;;;;;;4975664;28;20045;-75
2022/06/18 08:16:49;;;;;;;8.45;3.60;;;;;;;;;;4975796;28;20385;-75
2022/06/18 08:19:15;;;;;;;13.07;3.08;;;;;;;;;;4975937;28;20064;-75
2022/06/18 08:21:45;;;;;;;11.18;3.05;;;;;;;;;;4976069;28;20394;-74
2022/06/18 08:24:13;;;;;;;9.27;3.05;;;;;;;;;;4976553;28;20035;-75
2022/06/18 08:26:40;;;;;;;16.77;3.67;;;;;;;;;;4976058;28;20448;-75
2022/06/18 08:29:09;;;;;;;12.95;3.60;;;;;;;;;;4975449;28;20057;-75
2022/06/18 08:31:35;;;;;;;12.35;3.35;;;;;;;;;;4975898;28;20030;-75
2022/06/18 08:34:01;;;;;;;13.75;3.40;;;;;;;;;;4975585;28;20496;-75
2022/06/18 08:36:28;;;;;;;11.90;3.70;;;;;;;;;;4976200;28;20039;-75
2022/06/18 08:38:54;;;;;;;12.82;3.90;;;;;;;;;;4975415;28;20023;-75
2022/06/18 08:41:39;;;;;;;16.92;3.55;;;;;;;;;;4957860;28;20038;-75
2022/06/18 08:44:24;;;;;;;14.80;3.67;;;;;;;;;;4975318;28;20018;-75
2022/06/18 08:46:53;;;;;;;10.25;3.30;;;;;;;;;;4975542;28;20037;-75
2022/06/18 08:49:35;;;;;;;12.10;3.53;;;;;;;;;;4975628;28;20031;-75
2022/06/18 08:52:08;;;;;;;15.48;3.38;;;;;;;;;;4975294;28;20561;-75
2022/06/18 08:54:53;;;;;;;12.23;3.15;;;;;;;;;;4976009;28;20023;-75
2022/06/18 08:57:24;;;;;;;11.82;3.30;;;;;;;;;;4975404;28;20045;-75
2022/06/18 08:59:54;;;;;;;9.27;3.28;;;;;;;;;;4975449;28;20026;-75
2022/06/18 09:02:20;;;;;;;9.88;3.22;;;;;;;;;;4975209;28;20402;-75
2022/06/18 09:04:47;;;;;;;16.17;3.47;;;;;;;;;;4975094;28;20509;-75
2022/06/18 09:07:16;;;;;;;9.32;2.80;;;;;;;;;;4975163;28;20061;-76
2022/06/18 09:09:49;;;;;;;13.98;3.22;;;;;;;;;;4975305;28;20038;-75
2022/06/18 09:12:25;;;;;;;9.07;2.53;;;;;;;;;;4974551;28;20034;-76
2022/06/18 09:15:07;;;;;;;10.00;3.13;;;;;;;;;;4974651;28;20053;-75
2022/06/18 09:17:37;;;;;;;16.92;2.78;;;;;;;;;;4973518;28;20045;-75
2022/06/18 09:20:03;;;;;;;11.90;2.92;;;;;;;;;;4974808;28;20022;-75
2022/06/18 09:22:31;;;;;;;13.70;3.10;;;;;;;;;;4974977;28;20019;-76
2022/06/18 09:25:00;;;;;;;13.77;3.00;;;;;;;;;;4974895;28;20076;-75
2022/06/18 09:27:43;;;;;;;8.10;2.90;;;;;;;;;;4973885;28;20039;-75
2022/06/18 09:30:36;;;;;;;9.55;2.67;;;;;;;;;;4974808;28;20049;-75
2022/06/18 09:33:07;;;;;;;14.27;2.78;;;;;;;;;;4971234;28;20049;-75
2022/06/18 09:35:40;;;;;;;17.58;2.60;;;;;;;;;;4974420;28;20035;-75
2022/06/18 09:38:24;;;;;;;7.93;2.60;;;;;;;;;;4974724;28;20027;-75
2022/06/18 09:40:58;;;;;;;10.60;2.33;;;;;;;;;;4973933;28;20022;-75
2022/06/18 09:43:33;;;;;;;12.93;2.85;;;;;;;;;;4974639;28;20030;-75
2022/06/18 09:46:01;;;;;;;8.55;2.40;;;;;;;;;;4974654;28;20038;-75
2022/06/18 09:48:28;;;;;;;10.05;2.58;;;;;;;;;;4975078;28;20027;-75
2022/06/18 09:50:56;;;;;;;9.23;2.70;;;;;;;;;;4974201;28;20023;-76
2022/06/18 09:53:34;;;;;;;7.88;2.60;;;;;;;;;;4974532;28;20026;-75
2022/06/18 09:56:24;;;;;;;11.07;2.92;;;;;;;;;;4973792;28;20034;-76
2022/06/18 09:58:56;;;;;;;12.93;2.83;;;;;;;;;;4964193;28;20027;-75
2022/06/18 10:01:27;;;;;;;8.85;2.85;;;;;;;;;;4974053;28;20031;-76
2022/06/18 10:06:57;;;;;;;4.55;2.70;;;;;;;;;;4970909;28;20035;-75
2022/06/18 10:09:44;;;;;;;11.02;2.40;;;;;;;;;;4974279;28;20035;-75
2022/06/18 10:12:28;;;;;;;11.27;2.70;;;;;;;;;;4960040;28;20039;-75
2022/06/18 10:14:55;;;;;;;11.15;2.58;;;;;;;;;;4973557;28;20547;-75
2022/06/18 10:17:25;;;;;;;11.45;2.90;;;;;;;;;;4973684;28;20035;-76
2022/06/18 10:20:14;;;;;;;10.03;2.60;;;;;;;;;;4973710;28;20102;-75
2022/06/18 10:22:45;;;;;;;11.73;2.92;;;;;;;;;;4963683;28;20292;-75
2022/06/18 10:25:21;;;;;;;12.77;3.00;;;;;;;;;;4958483;28;20377;-75
2022/06/18 10:28:06;;;;;;;8.93;2.80;;;;;;;;;;4973816;28;20030;-75
2022/06/18 10:30:36;;;;;;;7.13;2.92;;;;;;;;;;4973972;28;20033;-75
2022/06/18 10:33:10;;;;;;;9.37;2.93;;;;;;;;;;4973497;28;20041;-75
2022/06/18 10:36:01;;;;;;;16.95;3.25;;;;;;;;;;4973219;28;20069;-75
2022/06/18 10:38:36;;;;;;;7.32;2.75;;;;;;;;;;4955809;28;20035;-75
2022/06/18 10:41:03;;;;;;;11.25;3.08;;;;;;;;;;4973478;28;20037;-75
2022/06/18 10:43:32;;;;;;;11.43;3.08;;;;;;;;;;4973524;28;20023;-76
2022/06/18 10:46:03;;;;;;;7.30;3.30;;;;;;;;;;4973441;28;20027;-75
2022/06/18 10:48:30;;;;;;;11.40;2.88;;;;;;;;;;4974008;28;20038;-75
2022/06/18 10:50:58;;;;;;;9.45;3.10;;;;;;;;;;4973174;28;20504;-75
2022/06/18 10:53:26;;;;;;;15.80;3.55;;;;;;;;;;4955726;28;20037;-75
2022/06/18 10:56:02;;;;;;;14.02;3.42;;;;;;;;;;4973031;28;20053;-75
2022/06/18 10:58:28;;;;;;;7.35;3.00;;;;;;;;;;4973564;28;20029;-75
2022/06/18 11:00:56;;;;;;;11.48;3.55;;;;;;;;;;4972839;28;20543;-75
2022/06/18 11:03:23;;;;;;;9.90;3.70;;;;;;;;;;4974020;28;20023;-75
2022/06/18 11:05:50;;;;;;;11.43;3.67;;;;;;;;;;4973003;28;20533;-75
2022/06/18 11:08:22;;;;;;;15.95;3.55;;;;;;;;;;4972855;28;20037;-75
2022/06/18 11:11:02;;;;;;;9.35;2.83;;;;;;;;;;4972733;28;20023;-75
2022/06/18 11:13:37;;;;;;;14.40;3.88;;;;;;;;;;4972817;28;20015;-75
2022/06/18 11:16:05;;;;;;;11.65;3.58;;;;;;;;;;4934148;29;20028;-75
2022/06/18 11:18:32;;;;;;;10.25;3.55;;;;;;;;;;4933997;29;20028;-75
2022/06/18 11:21:00;;;;;;;8.23;3.75;;;;;;;;;;4934121;29;20094;-75
2022/06/18 11:23:27;;;;;;;15.32;6.90;;;;;;;;;;4933740;29;20034;-75
2022/06/18 11:25:55;;;;;;;11.80;3.85;;;;;;;;;;4934161;29;20659;-75
2022/06/18 11:28:24;;;;;;;15.32;5.60;;;;;;;;;;4934244;29;20020;-75
2022/06/18 11:30:52;;;;;;;15.55;4.05;;;;;;;;;;4934248;29;20031;-76
2022/06/18 11:33:30;;;;;;;6.68;3.65;;;;;;;;;;4934441;29;20503;-75
2022/06/18 11:35:57;;;;;;;19.23;6.07;;;;;;;;;;4933846;29;20036;-75
2022/06/18 11:38:29;;;;;;;18.48;7.43;;;;;;;;;;4933977;29;20042;-75
2022/06/18 11:40:56;;;;;;;11.63;5.47;;;;;;;;;;4933468;29;20496;-75
2022/06/18 11:43:22;;;;;;;20.48;5.55;;;;;;;;;;4934289;29;20111;-75
2022/06/18 11:45:54;;;;;;;10.95;4.00;;;;;;;;;;4934450;29;20023;-75
2022/06/18 11:48:23;;;;;;;14.07;3.40;;;;;;;;;;4934412;29;20477;-75
2022/06/18 11:50:58;;;;;;;11.37;3.63;;;;;;;;;;4933557;29;20496;-75
2022/06/18 11:53:36;;;;;;;13.10;4.25;;;;;;;;;;4933911;29;20024;-75
2022/06/18 11:56:06;;;;;;;21.20;4.20;;;;;;;;;;4933660;29;20048;-75
2022/06/18 11:58:34;;;;;;;15.55;3.70;;;;;;;;;;4933965;29;20030;-75
2022/06/18 12:01:19;;;;;;;19.98;3.95;;;;;;;;;;4934188;29;20036;-75
2022/06/18 12:04:01;;;;;;;17.02;3.65;;;;;;;;;;4930781;29;20031;-76
2022/06/18 12:06:36;;;;;;;14.43;4.10;;;;;;;;;;4934248;29;20048;-76
2022/06/18 12:09:03;;;;;;;13.32;3.50;;;;;;;;;;4933796;29;20024;-75
2022/06/18 12:11:33;;;;;;;9.30;3.50;;;;;;;;;;4933502;29;20042;-75
2022/06/18 12:14:18;;;;;;;13.75;3.95;;;;;;;;;;4939821;28;20534;-75
2022/06/18 12:16:50;;;;;;;13.20;3.75;;;;;;;;;;4971987;28;20508;-76
2022/06/18 12:19:41;;;;;;;15.20;4.07;;;;;;;;;;4972558;28;20031;-76
2022/06/18 12:22:19;;;;;;;14.00;3.55;;;;;;;;;;4971973;28;20495;-75
2022/06/18 12:24:52;;;;;;;11.80;3.00;;;;;;;;;;4969652;28;20030;-75
2022/06/18 12:27:19;;;;;;;14.77;3.67;;;;;;;;;;4971000;28;20042;-76
2022/06/18 12:29:57;;;;;;;13.68;3.38;;;;;;;;;;4972065;28;20035;-76
2022/06/18 12:32:30;;;;;;;10.38;3.38;;;;;;;;;;4972119;28;20030;-75
2022/06/18 12:35:03;;;;;;;12.38;3.33;;;;;;;;;;4971861;28;20033;-75
2022/06/18 12:37:32;;;;;;;21.13;3.13;;;;;;;;;;4970771;28;20047;-76
2022/06/18 12:40:13;;;;;;;13.27;3.50;;;;;;;;;;4970984;28;20034;-75
2022/06/18 12:43:02;;;;;;;16.90;3.40;;;;;;;;;;4968554;28;20026;-75
2022/06/18 12:45:47;;;;;;;16.83;3.80;;;;;;;;;;4971584;28;20034;-75
2022/06/18 12:48:18;;;;;;;13.05;3.70;;;;;;;;;;4971747;28;20056;-75
2022/06/18 12:50:45;;;;;;;15.10;3.15;;;;;;;;;;4971641;28;20492;-75
2022/06/18 12:53:11;;;;;;;12.45;3.60;;;;;;;;;;4975360;28;20037;-76
2022/06/18 12:55:54;;;;;;;10.05;3.15;;;;;;;;;;4975492;28;20029;-75
2022/06/18 12:58:21;;;;;;;14.00;3.35;;;;;;;;;;4961597;28;20500;-75
2022/06/18 13:00:51;;;;;;;11.32;3.08;;;;;;;;;;4975569;28;20033;-76
2022/06/18 13:03:17;;;;;;;16.35;3.55;;;;;;;;;;4975295;28;20027;-75
2022/06/18 13:05:50;;;;;;;12.02;3.13;;;;;;;;;;4975193;28;20041;-75
2022/06/18 13:08:27;;;;;;;15.02;3.47;;;;;;;;;;4975408;28;20027;-75
2022/06/18 13:11:00;;;;;;;10.73;3.28;;;;;;;;;;4975373;28;20035;-75
2022/06/18 13:13:42;;;;;;;11.50;3.50;;;;;;;;;;4974871;28;20030;-75
2022/06/18 13:16:11;;;;;;;15.00;3.13;;;;;;;;;;4959570;28;20042;-75
2022/06/18 13:18:37;;;;;;;20.00;2.70;;;;;;;;;;4971452;28;20034;-75
2022/06/18 13:21:07;;;;;;;10.98;2.90;;;;;;;;;;4974839;28;20027;-76
2022/06/18 13:29:13;;;;;;;11.05;3.30;;;;;;;;;;4974776;28;20510;-75
2022/06/18 13:31:55;;;;;;;12.10;3.25;;;;;;;;;;4974740;28;20025;-75
2022/06/18 13:34:24;;;;;;;12.40;2.90;;;;;;;;;;4960494;28;20037;-75
2022/06/18 13:36:59;;;;;;;22.80;3.88;;;;;;;;;;4973216;28;20403;-75
2022/06/18 13:39:32;;;;;;;12.45;3.35;;;;;;;;;;4973608;28;20030;-75
2022/06/18 13:42:11;;;;;;;11.65;3.33;;;;;;;;;;4974315;28;20511;-75
2022/06/18 13:44:47;;;;;;;14.57;3.42;;;;;;;;;;4974191;28;20034;-75
2022/06/18 13:47:22;;;;;;;26.70;3.85;;;;;;;;;;4956759;28;20089;-75
2022/06/18 13:49:56;;;;;;;16.95;3.85;;;;;;;;;;4974366;28;20049;-75
2022/06/18 13:52:23;;;;;;;11.07;3.45;;;;;;;;;;4974338;28;20023;-75
2022/06/18 13:54:51;;;;;;;13.25;3.47;;;;;;;;;;4974245;28;20037;-75
2022/06/18 13:57:21;;;;;;;16.33;3.85;;;;;;;;;;4974666;28;20042;-75
2022/06/18 13:59:56;;;;;;;20.15;3.22;;;;;;;;;;4974111;28;20529;-75
2022/06/18 14:02:32;;;;;;;14.82;3.90;;;;;;;;;;4973732;28;20113;-76
2022/06/18 14:05:04;;;;;;;15.50;3.97;;;;;;;;;;4973850;28;20041;-75
2022/06/18 14:07:32;;;;;;;12.73;3.67;;;;;;;;;;4974183;28;20023;-75
2022/06/18 14:09:59;;;;;;;8.85;3.13;;;;;;;;;;4974136;28;20027;-75
2022/06/18 14:12:25;;;;;;;27.17;3.55;;;;;;;;;;4974464;28;20057;-75
2022/06/18 14:15:01;;;;;;;17.98;3.60;;;;;;;;;;4973627;28;20047;-75
2022/06/18 14:17:37;;;;;;;14.48;3.72;;;;;;;;;;4973305;28;20440;-75
2022/06/18 14:20:04;;;;;;;12.70;3.45;;;;;;;;;;4956327;28;20067;-75
2022/06/18 14:22:32;;;;;;;20.08;3.85;;;;;;;;;;4973973;28;20411;-75
2022/06/18 14:25:00;;;;;;;12.88;3.67;;;;;;;;;;4973511;28;20387;-75
2022/06/18 14:27:28;;;;;;;19.23;4.10;;;;;;;;;;4973022;28;20034;-75
2022/06/18 14:29:55;;;;;;;10.73;3.60;;;;;;;;;;4973604;28;20052;-75
2022/06/18 14:32:36;;;;;;;14.38;3.50;;;;;;;;;;4973563;28;20027;-75
2022/06/18 14:35:19;;;;;;;15.18;3.63;;;;;;;;;;4973614;28;20034;-75
2022/06/18 14:37:46;;;;;;;13.82;3.78;;;;;;;;;;4956297;28;20030;-75
2022/06/18 14:40:16;;;;;;;13.00;3.55;;;;;;;;;;4973387;28;20030;-75
2022/06/18 14:42:50;;;;;;;15.18;3.38;;;;;;;;;;4973961;28;20039;-75
2022/06/18 14:45:29;;;;;;;17.48;3.60;;;;;;;;;;4973406;28;20611;-75
2022/06/18 14:48:19;;;;;;;16.20;3.33;;;;;;;;;;4973370;28;20031;-75
2022/06/18 14:51:01;;;;;;;16.70;3.60;;;;;;;;;;4973541;28;20022;-75
2022/06/18 14:53:31;;;;;;;15.63;3.95;;;;;;;;;;4973462;28;20495;-75
2022/06/18 14:56:10;;;;;;;11.55;3.63;;;;;;;;;;4972900;28;20023;-76
2022/06/18 14:58:39;;;;;;;21.38;3.72;;;;;;;;;;4973500;28;20041;-75
2022/06/18 15:01:11;;;;;;;21.63;3.60;;;;;;;;;;4972885;28;20019;-75
2022/06/18 15:03:41;;;;;;;15.63;3.30;;;;;;;;;;4969148;28;20031;-74
2022/06/18 15:06:08;;;;;;;13.13;3.88;;;;;;;;;;4973072;28;20101;-75
2022/06/18 15:08:38;;;;;;;13.63;3.72;;;;;;;;;;4972981;28;20518;-74